Résultats sport de masse course à pied

Résultats : TRAIL DE GUERLEDAN - 58KM

Classement général Classement Sexe Nom, prénom Catégorie Sexe Club Temps global
631 601 COURSIN Erwin SE M AL BRéCé 09:02:35
632 602 NICOL FREDERERIC V1 M INTERSPORT REDEG 29 09:03:40
633 603 NEDELEC OLIVIER V1 M QUIMPER CYCLO CLUB 09:03:50
634 604 TEBIB CYRILLE V1 M GARNISON RENNES 09:03:54
635 605 BLAYO STEPHANE SE M 09:04:52
636 606 DERRIEN MARC V1 M 09:05:20
637 607 DOYEN Frederic V2 M les chevaliers du vent 09:05:24
638 608 COLLET FABRICE V1 M 09:05:54
639 609 LAMBERT Yoann V1 M BROCELIANDE AVENTURE 35 09:07:10
640 610 ABJEAN Alain V2 M LES CAVALEURS PLMCB BREST 09:07:11
641 611 LE-DORAN XAVIER SE M GUERLEDDAN TEAM DEFI 09:07:55
642 612 CORBIN Jean christophe V1 M LAURETTE FUGAIN 09:07:59
643 613 QUERE YANNICK V2 M AS NANDY 09:08:06
644 614 CHAPERON Pierrick V2 M ASSOCIATION LES FOULéES MAURITANIENNES 09:10:01
646 615 CALDERE MARC V1 M RCN Vallet 09:11:03
647 616 LE GUIGNER MARC V2 M 09:11:05
648 617 GRILLE Baptiste SE M COUREURS D EXTREME 09:11:45
649 618 BRAZ Tony SE M N.O.S. OMNISPORTS 09:12:25
650 619 ADAM Melaine SE M 09:12:27
652 620 DORE Philippe V2 M NON LICENCIé 09:12:48
653 621 DUMONTET FRANCIS V1 M EAPB 09:13:21
654 622 LE GAC Pierre-Yves V1 M BREST GOéLOPEURS 09:14:19
655 623 LE GALLIARD DAVID V1 M TKB 09:14:33
656 624 HARKAT CEDRIC V1 M team breiz 09:14:44
657 625 REPTIN Bertrand V2 M TEAM BARLY80 09:16:20
658 626 ALIS JEAN MICHEL V1 M 09:16:21
659 627 SICK TOV JEAN ALIX V2 M 09:16:21
660 628 SOREL LUDOVIC SE M LES FOULéES MAURITANIENNES 09:16:21
661 629 BUNAUX Jérémy SE M Non licencié 09:16:21
662 630 ROBIC MATHIEU SE M cleguerec 09:17:36
663 631 ROUZIC Yvon SE M 09:17:46
664 632 LANDIER Yannick V2 M 09:18:53
665 633 QUERE MATTHIEU SE M tennis club langueux 09:18:53
667 634 DESMAS MAXIME SE M SNOS 09:20:53
669 635 VIGOT Hubert V3 M JOGGING COUTANCES 09:21:57
670 636 BERHAULT Anthony SE M aslc sport nature 09:22:13
671 637 DINCUFF JULIEN SE M COURIR A SAINT-DIVY 09:22:22
672 638 YVINEC Gregory V1 M BLES D OR GOUESNOU 09:22:47
673 639 BILLON FRANCIS V1 M LMA 72 09:23:28
674 640 LECHABLE PHILIPPE V1 M TEAM TRAIL 35 09:23:37
675 641 CRISTEL DIDIER V2 M SAINT NAZAIRE OLYMPIQUE SA 09:23:37
676 642 LE PORIEL Romain SE M 09:23:40
677 643 PERON STEPHANE SE M TEAM PHARE OUEST 09:23:40
678 644 SIMON HERVE V3 M LES STARS DE PENCRAN 09:23:50
679 645 SUAREZ DAMIEN ES M jogging club poire sur vie 09:24:47
680 646 TRAVER Luc V3 M GRANIT RUNNING 22 09:24:51
681 647 GELGON Philippe V1 M TEAM BREIZH BAROUDEUR 09:25:01
682 648 NICOLAS VINCENT V1 M ISSY CLUB 09:25:03
683 649 BLANCHARD DAVID SE M Non licencié 09:26:07
684 650 BARABE PASCAL V2 M ROUMOIS 09:26:23